sensor_id;sensor_type;location;lat;lon;timestamp;P1;durP1;ratioP1;P2;durP2;ratioP2
17065;SDS011;23120;52.336;21.182;2022-10-31T00:01:49;54.03;;;40.73;;
17065;SDS011;23120;52.336;21.182;2022-10-31T00:04:16;57.00;;;42.03;;
17065;SDS011;23120;52.336;21.182;2022-10-31T00:06:43;60.20;;;42.60;;
17065;SDS011;23120;52.336;21.182;2022-10-31T00:09:10;51.80;;;42.57;;
17065;SDS011;23120;52.336;21.182;2022-10-31T00:11:37;52.67;;;40.83;;
17065;SDS011;23120;52.336;21.182;2022-10-31T00:14:05;61.40;;;43.77;;
17065;SDS011;23120;52.336;21.182;2022-10-31T00:16:32;54.67;;;42.37;;
17065;SDS011;23120;52.336;21.182;2022-10-31T00:19:00;59.30;;;42.03;;
17065;SDS011;23120;52.336;21.182;2022-10-31T00:21:29;58.40;;;41.10;;
17065;SDS011;23120;52.336;21.182;2022-10-31T00:23:57;61.00;;;43.07;;
17065;SDS011;23120;52.336;21.182;2022-10-31T00:26:24;52.73;;;40.30;;
17065;SDS011;23120;52.336;21.182;2022-10-31T00:28:52;49.43;;;38.50;;
17065;SDS011;23120;52.336;21.182;2022-10-31T00:31:21;49.93;;;39.67;;
17065;SDS011;23120;52.336;21.182;2022-10-31T00:33:48;48.27;;;38.80;;
17065;SDS011;23120;52.336;21.182;2022-10-31T00:36:17;48.40;;;38.67;;
17065;SDS011;23120;52.336;21.182;2022-10-31T00:38:45;45.37;;;37.37;;
17065;SDS011;23120;52.336;21.182;2022-10-31T00:41:14;48.07;;;37.07;;
17065;SDS011;23120;52.336;21.182;2022-10-31T00:43:42;46.90;;;37.00;;
17065;SDS011;23120;52.336;21.182;2022-10-31T00:46:09;51.63;;;37.33;;
17065;SDS011;23120;52.336;21.182;2022-10-31T00:48:37;46.47;;;36.47;;
17065;SDS011;23120;52.336;21.182;2022-10-31T00:51:04;47.90;;;37.20;;
17065;SDS011;23120;52.336;21.182;2022-10-31T00:53:31;49.40;;;37.27;;
17065;SDS011;23120;52.336;21.182;2022-10-31T00:55:58;48.20;;;38.07;;
17065;SDS011;23120;52.336;21.182;2022-10-31T00:58:25;49.57;;;36.23;;
17065;SDS011;23120;52.336;21.182;2022-10-31T01:00:52;46.00;;;37.80;;
17065;SDS011;23120;52.336;21.182;2022-10-31T01:03:21;50.13;;;36.97;;
17065;SDS011;23120;52.336;21.182;2022-10-31T01:05:57;49.33;;;37.87;;
17065;SDS011;23120;52.336;21.182;2022-10-31T01:08:25;46.30;;;36.00;;
17065;SDS011;23120;52.336;21.182;2022-10-31T01:10:59;48.03;;;36.23;;
17065;SDS011;23120;52.336;21.182;2022-10-31T01:13:27;44.90;;;35.07;;
17065;SDS011;23120;52.336;21.182;2022-10-31T01:15:54;47.47;;;36.97;;
17065;SDS011;23120;52.336;21.182;2022-10-31T01:18:22;47.37;;;35.67;;
17065;SDS011;23120;52.336;21.182;2022-10-31T01:20:57;47.23;;;36.67;;
17065;SDS011;23120;52.336;21.182;2022-10-31T01:23:25;44.77;;;35.53;;
17065;SDS011;23120;52.336;21.182;2022-10-31T01:25:59;46.03;;;35.77;;
17065;SDS011;23120;52.336;21.182;2022-10-31T01:28:32;44.80;;;34.43;;
17065;SDS011;23120;52.336;21.182;2022-10-31T01:31:03;41.53;;;33.70;;
17065;SDS011;23120;52.336;21.182;2022-10-31T01:33:33;48.30;;;33.60;;
17065;SDS011;23120;52.336;21.182;2022-10-31T01:36:01;45.37;;;35.10;;
17065;SDS011;23120;52.336;21.182;2022-10-31T01:38:37;42.47;;;33.00;;
17065;SDS011;23120;52.336;21.182;2022-10-31T01:41:04;41.63;;;32.33;;
17065;SDS011;23120;52.336;21.182;2022-10-31T01:43:41;39.30;;;32.07;;
17065;SDS011;23120;52.336;21.182;2022-10-31T01:46:12;42.33;;;32.50;;
17065;SDS011;23120;52.336;21.182;2022-10-31T01:48:42;38.00;;;30.03;;
17065;SDS011;23120;52.336;21.182;2022-10-31T01:51:10;37.97;;;29.07;;
17065;SDS011;23120;52.336;21.182;2022-10-31T01:53:39;37.10;;;29.43;;
17065;SDS011;23120;52.336;21.182;2022-10-31T01:56:07;38.63;;;29.37;;
17065;SDS011;23120;52.336;21.182;2022-10-31T01:58:36;35.73;;;26.87;;
17065;SDS011;23120;52.336;21.182;2022-10-31T02:01:03;29.87;;;26.63;;
17065;SDS011;23120;52.336;21.182;2022-10-31T02:03:30;32.87;;;26.33;;
17065;SDS011;23120;52.336;21.182;2022-10-31T02:05:58;34.67;;;24.50;;
17065;SDS011;23120;52.336;21.182;2022-10-31T02:08:27;29.87;;;25.03;;
17065;SDS011;23120;52.336;21.182;2022-10-31T02:10:56;28.10;;;23.40;;
17065;SDS011;23120;52.336;21.182;2022-10-31T02:13:23;26.70;;;22.60;;
17065;SDS011;23120;52.336;21.182;2022-10-31T02:15:52;29.20;;;22.30;;
17065;SDS011;23120;52.336;21.182;2022-10-31T02:18:20;29.67;;;22.50;;
17065;SDS011;23120;52.336;21.182;2022-10-31T02:20:54;31.10;;;21.90;;
17065;SDS011;23120;52.336;21.182;2022-10-31T02:23:48;27.87;;;21.00;;
17065;SDS011;23120;52.336;21.182;2022-10-31T02:26:41;27.30;;;20.97;;
17065;SDS011;23120;52.336;21.182;2022-10-31T02:32:24;27.73;;;20.20;;
17065;SDS011;23120;52.336;21.182;2022-10-31T02:34:57;26.73;;;21.23;;
17065;SDS011;23120;52.336;21.182;2022-10-31T02:37:32;24.10;;;20.13;;
17065;SDS011;23120;52.336;21.182;2022-10-31T02:40:05;25.13;;;19.83;;
17065;SDS011;23120;52.336;21.182;2022-10-31T02:43:02;26.10;;;19.70;;
17065;SDS011;23120;52.336;21.182;2022-10-31T02:45:34;22.87;;;18.83;;
17065;SDS011;23120;52.336;21.182;2022-10-31T02:48:09;25.60;;;19.93;;
17065;SDS011;23120;52.336;21.182;2022-10-31T02:50:43;26.13;;;18.30;;
17065;SDS011;23120;52.336;21.182;2022-10-31T02:53:16;24.20;;;18.57;;
17065;SDS011;23120;52.336;21.182;2022-10-31T02:55:50;24.63;;;18.50;;
17065;SDS011;23120;52.336;21.182;2022-10-31T02:58:22;22.90;;;19.17;;
17065;SDS011;23120;52.336;21.182;2022-10-31T03:01:06;26.13;;;18.67;;
17065;SDS011;23120;52.336;21.182;2022-10-31T03:03:51;25.43;;;18.67;;
17065;SDS011;23120;52.336;21.182;2022-10-31T03:06:28;23.93;;;18.93;;
17065;SDS011;23120;52.336;21.182;2022-10-31T03:09:00;24.50;;;19.03;;
17065;SDS011;23120;52.336;21.182;2022-10-31T03:11:40;26.43;;;18.37;;
17065;SDS011;23120;52.336;21.182;2022-10-31T03:14:14;23.57;;;18.53;;
17065;SDS011;23120;52.336;21.182;2022-10-31T03:16:52;22.93;;;18.60;;
17065;SDS011;23120;52.336;21.182;2022-10-31T03:19:25;25.33;;;18.40;;
17065;SDS011;23120;52.336;21.182;2022-10-31T03:21:57;23.23;;;17.47;;
17065;SDS011;23120;52.336;21.182;2022-10-31T03:24:27;20.90;;;16.90;;
17065;SDS011;23120;52.336;21.182;2022-10-31T03:26:59;23.03;;;17.83;;
17065;SDS011;23120;52.336;21.182;2022-10-31T03:29:29;25.83;;;17.47;;
17065;SDS011;23120;52.336;21.182;2022-10-31T03:32:00;25.30;;;18.17;;
17065;SDS011;23120;52.336;21.182;2022-10-31T03:34:34;22.37;;;17.13;;
17065;SDS011;23120;52.336;21.182;2022-10-31T03:37:03;29.50;;;18.37;;
17065;SDS011;23120;52.336;21.182;2022-10-31T03:39:32;24.73;;;17.83;;
17065;SDS011;23120;52.336;21.182;2022-10-31T03:42:03;23.60;;;18.10;;
17065;SDS011;23120;52.336;21.182;2022-10-31T03:44:32;25.20;;;18.53;;
17065;SDS011;23120;52.336;21.182;2022-10-31T03:47:01;23.60;;;18.63;;
17065;SDS011;23120;52.336;21.182;2022-10-31T03:49:30;27.03;;;18.73;;
17065;SDS011;23120;52.336;21.182;2022-10-31T03:51:59;22.90;;;17.90;;
17065;SDS011;23120;52.336;21.182;2022-10-31T03:54:34;25.80;;;18.57;;
17065;SDS011;23120;52.336;21.182;2022-10-31T03:57:06;22.70;;;17.93;;
17065;SDS011;23120;52.336;21.182;2022-10-31T03:59:39;23.43;;;18.37;;
17065;SDS011;23120;52.336;21.182;2022-10-31T04:02:10;25.73;;;19.27;;
17065;SDS011;23120;52.336;21.182;2022-10-31T04:04:41;25.60;;;19.87;;
17065;SDS011;23120;52.336;21.182;2022-10-31T04:07:12;30.90;;;18.17;;
17065;SDS011;23120;52.336;21.182;2022-10-31T04:09:41;22.77;;;17.93;;
17065;SDS011;23120;52.336;21.182;2022-10-31T04:12:11;25.17;;;18.50;;
17065;SDS011;23120;52.336;21.182;2022-10-31T04:14:54;27.20;;;18.27;;
17065;SDS011;23120;52.336;21.182;2022-10-31T04:17:22;23.87;;;17.80;;
17065;SDS011;23120;52.336;21.182;2022-10-31T04:19:51;27.37;;;19.53;;
17065;SDS011;23120;52.336;21.182;2022-10-31T04:22:20;27.27;;;18.30;;
17065;SDS011;23120;52.336;21.182;2022-10-31T04:24:47;23.20;;;17.93;;
17065;SDS011;23120;52.336;21.182;2022-10-31T04:27:15;27.90;;;20.33;;
17065;SDS011;23120;52.336;21.182;2022-10-31T04:29:42;24.43;;;19.90;;
17065;SDS011;23120;52.336;21.182;2022-10-31T04:32:09;31.10;;;20.40;;
17065;SDS011;23120;52.336;21.182;2022-10-31T04:34:36;30.27;;;19.97;;
17065;SDS011;23120;52.336;21.182;2022-10-31T04:37:03;27.70;;;20.60;;
17065;SDS011;23120;52.336;21.182;2022-10-31T04:39:32;27.67;;;20.33;;
17065;SDS011;23120;52.336;21.182;2022-10-31T04:42:19;26.87;;;19.63;;
17065;SDS011;23120;52.336;21.182;2022-10-31T04:44:46;28.97;;;18.77;;
17065;SDS011;23120;52.336;21.182;2022-10-31T04:47:13;26.40;;;19.37;;
17065;SDS011;23120;52.336;21.182;2022-10-31T04:49:41;26.40;;;18.57;;
17065;SDS011;23120;52.336;21.182;2022-10-31T04:52:10;23.93;;;18.57;;
17065;SDS011;23120;52.336;21.182;2022-10-31T04:54:38;24.93;;;19.13;;
17065;SDS011;23120;52.336;21.182;2022-10-31T04:57:23;22.77;;;18.00;;
17065;SDS011;23120;52.336;21.182;2022-10-31T04:59:50;28.50;;;19.53;;
17065;SDS011;23120;52.336;21.182;2022-10-31T05:02:17;21.77;;;18.40;;
17065;SDS011;23120;52.336;21.182;2022-10-31T05:04:51;26.57;;;18.50;;
17065;SDS011;23120;52.336;21.182;2022-10-31T05:07:18;22.43;;;17.57;;
17065;SDS011;23120;52.336;21.182;2022-10-31T05:09:46;29.37;;;19.83;;
17065;SDS011;23120;52.336;21.182;2022-10-31T05:12:13;27.07;;;18.17;;
17065;SDS011;23120;52.336;21.182;2022-10-31T05:14:53;26.13;;;19.30;;
17065;SDS011;23120;52.336;21.182;2022-10-31T05:17:40;22.43;;;18.20;;
17065;SDS011;23120;52.336;21.182;2022-10-31T05:20:25;22.63;;;18.13;;
17065;SDS011;23120;52.336;21.182;2022-10-31T05:23:05;27.63;;;18.70;;
17065;SDS011;23120;52.336;21.182;2022-10-31T05:25:34;25.40;;;18.47;;
17065;SDS011;23120;52.336;21.182;2022-10-31T05:28:03;22.03;;;18.30;;
17065;SDS011;23120;52.336;21.182;2022-10-31T05:30:30;22.63;;;18.03;;
17065;SDS011;23120;52.336;21.182;2022-10-31T05:32:58;23.90;;;18.47;;
17065;SDS011;23120;52.336;21.182;2022-10-31T05:35:43;23.47;;;17.07;;
17065;SDS011;23120;52.336;21.182;2022-10-31T05:38:27;24.73;;;18.83;;
17065;SDS011;23120;52.336;21.182;2022-10-31T05:40:59;24.70;;;18.97;;
17065;SDS011;23120;52.336;21.182;2022-10-31T05:43:29;21.70;;;18.20;;
17065;SDS011;23120;52.336;21.182;2022-10-31T05:45:56;24.23;;;18.83;;
17065;SDS011;23120;52.336;21.182;2022-10-31T05:48:33;24.07;;;18.80;;
17065;SDS011;23120;52.336;21.182;2022-10-31T05:51:20;26.30;;;18.43;;
17065;SDS011;23120;52.336;21.182;2022-10-31T05:53:47;24.23;;;18.70;;
17065;SDS011;23120;52.336;21.182;2022-10-31T05:56:16;24.23;;;17.67;;
17065;SDS011;23120;52.336;21.182;2022-10-31T05:58:43;24.67;;;18.57;;
17065;SDS011;23120;52.336;21.182;2022-10-31T06:01:10;22.30;;;18.73;;
17065;SDS011;23120;52.336;21.182;2022-10-31T06:03:37;27.27;;;19.70;;
17065;SDS011;23120;52.336;21.182;2022-10-31T06:06:07;25.97;;;19.23;;
17065;SDS011;23120;52.336;21.182;2022-10-31T06:08:36;26.37;;;18.97;;
17065;SDS011;23120;52.336;21.182;2022-10-31T06:11:06;25.37;;;21.00;;
17065;SDS011;23120;52.336;21.182;2022-10-31T06:13:45;28.40;;;21.80;;
17065;SDS011;23120;52.336;21.182;2022-10-31T06:16:18;26.60;;;20.60;;
17065;SDS011;23120;52.336;21.182;2022-10-31T06:18:45;28.30;;;22.53;;
17065;SDS011;23120;52.336;21.182;2022-10-31T06:21:12;24.53;;;19.67;;
17065;SDS011;23120;52.336;21.182;2022-10-31T06:23:39;32.80;;;21.80;;
17065;SDS011;23120;52.336;21.182;2022-10-31T06:26:23;31.20;;;21.07;;
17065;SDS011;23120;52.336;21.182;2022-10-31T06:28:53;28.27;;;20.67;;
17065;SDS011;23120;52.336;21.182;2022-10-31T06:31:39;29.20;;;20.93;;
17065;SDS011;23120;52.336;21.182;2022-10-31T06:34:06;28.13;;;20.87;;
17065;SDS011;23120;52.336;21.182;2022-10-31T06:36:34;29.07;;;22.10;;
17065;SDS011;23120;52.336;21.182;2022-10-31T06:39:01;27.57;;;20.90;;
17065;SDS011;23120;52.336;21.182;2022-10-31T06:41:29;27.87;;;20.63;;
17065;SDS011;23120;52.336;21.182;2022-10-31T06:43:58;26.23;;;20.53;;
17065;SDS011;23120;52.336;21.182;2022-10-31T06:46:45;28.23;;;21.03;;
17065;SDS011;23120;52.336;21.182;2022-10-31T06:49:30;26.17;;;20.37;;
17065;SDS011;23120;52.336;21.182;2022-10-31T06:52:00;28.57;;;21.23;;
17065;SDS011;23120;52.336;21.182;2022-10-31T06:54:28;34.33;;;22.23;;
17065;SDS011;23120;52.336;21.182;2022-10-31T06:56:55;30.57;;;22.50;;
17065;SDS011;23120;52.336;21.182;2022-10-31T06:59:23;29.40;;;21.63;;
17065;SDS011;23120;52.336;21.182;2022-10-31T07:02:03;26.47;;;21.33;;
17065;SDS011;23120;52.336;21.182;2022-10-31T07:04:32;27.10;;;21.07;;
17065;SDS011;23120;52.336;21.182;2022-10-31T07:06:59;33.90;;;24.57;;
17065;SDS011;23120;52.336;21.182;2022-10-31T07:09:26;30.80;;;22.20;;
17065;SDS011;23120;52.336;21.182;2022-10-31T07:11:55;28.33;;;21.00;;
17065;SDS011;23120;52.336;21.182;2022-10-31T07:14:24;28.53;;;21.43;;
17065;SDS011;23120;52.336;21.182;2022-10-31T07:16:52;27.93;;;21.80;;
17065;SDS011;23120;52.336;21.182;2022-10-31T07:19:24;27.63;;;22.57;;
17065;SDS011;23120;52.336;21.182;2022-10-31T07:21:50;29.37;;;22.43;;
17065;SDS011;23120;52.336;21.182;2022-10-31T07:24:17;32.37;;;23.23;;
17065;SDS011;23120;52.336;21.182;2022-10-31T07:27:03;33.67;;;23.50;;
17065;SDS011;23120;52.336;21.182;2022-10-31T07:29:32;29.10;;;21.70;;
17065;SDS011;23120;52.336;21.182;2022-10-31T07:31:59;29.83;;;22.93;;
17065;SDS011;23120;52.336;21.182;2022-10-31T07:34:28;27.50;;;21.40;;
17065;SDS011;23120;52.336;21.182;2022-10-31T07:37:14;26.00;;;21.00;;
17065;SDS011;23120;52.336;21.182;2022-10-31T07:39:40;26.00;;;20.73;;
17065;SDS011;23120;52.336;21.182;2022-10-31T07:42:07;28.93;;;20.13;;
17065;SDS011;23120;52.336;21.182;2022-10-31T07:44:37;25.80;;;19.13;;
17065;SDS011;23120;52.336;21.182;2022-10-31T07:47:14;24.43;;;18.20;;
17065;SDS011;23120;52.336;21.182;2022-10-31T07:49:54;23.20;;;18.60;;
17065;SDS011;23120;52.336;21.182;2022-10-31T07:52:34;22.07;;;17.33;;
17065;SDS011;23120;52.336;21.182;2022-10-31T07:55:14;22.00;;;17.17;;
17065;SDS011;23120;52.336;21.182;2022-10-31T07:57:45;23.00;;;16.77;;
17065;SDS011;23120;52.336;21.182;2022-10-31T08:00:14;20.73;;;16.70;;
17065;SDS011;23120;52.336;21.182;2022-10-31T08:02:41;22.13;;;16.53;;
17065;SDS011;23120;52.336;21.182;2022-10-31T08:05:24;20.20;;;15.90;;
17065;SDS011;23120;52.336;21.182;2022-10-31T08:08:10;23.33;;;16.50;;
17065;SDS011;23120;52.336;21.182;2022-10-31T08:10:38;17.57;;;15.30;;
17065;SDS011;23120;52.336;21.182;2022-10-31T08:13:07;19.10;;;14.83;;
17065;SDS011;23120;52.336;21.182;2022-10-31T08:15:39;18.30;;;15.30;;
17065;SDS011;23120;52.336;21.182;2022-10-31T08:18:10;18.63;;;14.73;;
17065;SDS011;23120;52.336;21.182;2022-10-31T08:20:38;17.80;;;14.73;;
17065;SDS011;23120;52.336;21.182;2022-10-31T08:23:06;20.23;;;15.50;;
17065;SDS011;23120;52.336;21.182;2022-10-31T08:25:34;16.93;;;14.40;;
17065;SDS011;23120;52.336;21.182;2022-10-31T08:28:01;17.20;;;14.90;;
17065;SDS011;23120;52.336;21.182;2022-10-31T08:30:30;16.47;;;14.73;;
17065;SDS011;23120;52.336;21.182;2022-10-31T08:33:15;17.03;;;14.47;;
17065;SDS011;23120;52.336;21.182;2022-10-31T08:36:03;17.07;;;13.87;;
17065;SDS011;23120;52.336;21.182;2022-10-31T08:38:47;16.33;;;13.00;;
17065;SDS011;23120;52.336;21.182;2022-10-31T08:41:15;19.53;;;13.87;;
17065;SDS011;23120;52.336;21.182;2022-10-31T08:43:42;18.70;;;13.40;;
17065;SDS011;23120;52.336;21.182;2022-10-31T08:46:09;15.07;;;13.47;;
17065;SDS011;23120;52.336;21.182;2022-10-31T08:48:39;16.00;;;13.07;;
17065;SDS011;23120;52.336;21.182;2022-10-31T08:51:06;20.40;;;13.77;;
17065;SDS011;23120;52.336;21.182;2022-10-31T08:53:35;18.53;;;13.47;;
17065;SDS011;23120;52.336;21.182;2022-10-31T08:56:14;15.73;;;13.70;;
17065;SDS011;23120;52.336;21.182;2022-10-31T08:58:40;18.90;;;12.93;;
17065;SDS011;23120;52.336;21.182;2022-10-31T09:01:08;18.90;;;13.13;;
17065;SDS011;23120;52.336;21.182;2022-10-31T09:03:35;14.07;;;12.57;;
17065;SDS011;23120;52.336;21.182;2022-10-31T09:06:03;15.37;;;12.53;;
17065;SDS011;23120;52.336;21.182;2022-10-31T09:08:33;15.23;;;11.73;;
17065;SDS011;23120;52.336;21.182;2022-10-31T09:11:01;19.50;;;12.97;;
17065;SDS011;23120;52.336;21.182;2022-10-31T09:13:48;17.17;;;12.63;;
17065;SDS011;23120;52.336;21.182;2022-10-31T09:16:34;15.43;;;12.50;;
17065;SDS011;23120;52.336;21.182;2022-10-31T09:19:00;14.30;;;12.63;;
17065;SDS011;23120;52.336;21.182;2022-10-31T09:21:29;13.23;;;11.93;;
17065;SDS011;23120;52.336;21.182;2022-10-31T09:23:57;15.43;;;12.37;;
17065;SDS011;23120;52.336;21.182;2022-10-31T09:26:24;18.80;;;12.30;;
17065;SDS011;23120;52.336;21.182;2022-10-31T09:29:05;18.90;;;12.57;;
17065;SDS011;23120;52.336;21.182;2022-10-31T09:31:34;13.03;;;11.57;;
17065;SDS011;23120;52.336;21.182;2022-10-31T09:34:05;14.47;;;11.23;;
17065;SDS011;23120;52.336;21.182;2022-10-31T09:36:43;14.70;;;11.30;;
17065;SDS011;23120;52.336;21.182;2022-10-31T09:39:22;14.53;;;11.23;;
17065;SDS011;23120;52.336;21.182;2022-10-31T09:42:01;13.47;;;11.03;;
17065;SDS011;23120;52.336;21.182;2022-10-31T09:44:39;12.10;;;10.80;;
17065;SDS011;23120;52.336;21.182;2022-10-31T09:47:25;12.07;;;10.30;;
17065;SDS011;23120;52.336;21.182;2022-10-31T09:50:14;14.37;;;10.13;;
17065;SDS011;23120;52.336;21.182;2022-10-31T09:52:50;12.20;;;10.50;;
17065;SDS011;23120;52.336;21.182;2022-10-31T09:55:28;13.50;;;10.57;;
17065;SDS011;23120;52.336;21.182;2022-10-31T09:58:01;11.43;;;9.43;;
17065;SDS011;23120;52.336;21.182;2022-10-31T10:00:29;13.03;;;10.70;;
17065;SDS011;23120;52.336;21.182;2022-10-31T10:02:58;12.00;;;10.53;;
17065;SDS011;23120;52.336;21.182;2022-10-31T10:05:32;13.40;;;10.37;;
17065;SDS011;23120;52.336;21.182;2022-10-31T10:08:09;10.87;;;9.77;;
17065;SDS011;23120;52.336;21.182;2022-10-31T10:10:55;11.57;;;10.47;;
17065;SDS011;23120;52.336;21.182;2022-10-31T10:13:51;11.20;;;9.53;;
17065;SDS011;23120;52.336;21.182;2022-10-31T10:16:27;11.53;;;9.80;;
17065;SDS011;23120;52.336;21.182;2022-10-31T10:19:07;12.67;;;10.63;;
17065;SDS011;23120;52.336;21.182;2022-10-31T10:21:44;13.20;;;9.67;;
17065;SDS011;23120;52.336;21.182;2022-10-31T10:24:28;11.00;;;9.40;;
17065;SDS011;23120;52.336;21.182;2022-10-31T10:27:05;11.30;;;9.83;;
17065;SDS011;23120;52.336;21.182;2022-10-31T10:29:40;13.63;;;9.40;;
17065;SDS011;23120;52.336;21.182;2022-10-31T10:32:15;12.30;;;9.77;;
17065;SDS011;23120;52.336;21.182;2022-10-31T10:34:47;12.33;;;9.87;;
17065;SDS011;23120;52.336;21.182;2022-10-31T10:37:21;11.70;;;9.43;;
17065;SDS011;23120;52.336;21.182;2022-10-31T10:39:55;10.70;;;9.07;;
17065;SDS011;23120;52.336;21.182;2022-10-31T10:42:27;10.07;;;9.00;;
17065;SDS011;23120;52.336;21.182;2022-10-31T10:45:15;12.60;;;8.83;;
17065;SDS011;23120;52.336;21.182;2022-10-31T10:48:05;9.37;;;8.30;;
17065;SDS011;23120;52.336;21.182;2022-10-31T10:50:35;10.40;;;8.47;;
17065;SDS011;23120;52.336;21.182;2022-10-31T10:53:09;8.87;;;7.80;;
17065;SDS011;23120;52.336;21.182;2022-10-31T10:55:58;9.77;;;8.63;;
17065;SDS011;23120;52.336;21.182;2022-10-31T10:58:30;10.87;;;7.90;;
17065;SDS011;23120;52.336;21.182;2022-10-31T11:00:57;12.67;;;8.43;;
17065;SDS011;23120;52.336;21.182;2022-10-31T11:03:24;8.47;;;7.67;;
17065;SDS011;23120;52.336;21.182;2022-10-31T11:05:51;14.30;;;9.00;;
17065;SDS011;23120;52.336;21.182;2022-10-31T11:08:25;10.83;;;9.57;;
17065;SDS011;23120;52.336;21.182;2022-10-31T11:10:57;10.93;;;9.73;;
17065;SDS011;23120;52.336;21.182;2022-10-31T11:13:25;11.80;;;10.33;;
17065;SDS011;23120;52.336;21.182;2022-10-31T11:15:54;12.30;;;10.33;;
17065;SDS011;23120;52.336;21.182;2022-10-31T11:18:25;14.30;;;10.87;;
17065;SDS011;23120;52.336;21.182;2022-10-31T11:20:53;15.67;;;11.03;;
17065;SDS011;23120;52.336;21.182;2022-10-31T11:23:22;13.40;;;11.20;;
17065;SDS011;23120;52.336;21.182;2022-10-31T11:25:51;13.60;;;11.07;;
17065;SDS011;23120;52.336;21.182;2022-10-31T11:28:21;14.63;;;10.90;;
17065;SDS011;23120;52.336;21.182;2022-10-31T11:30:49;12.50;;;10.90;;
17065;SDS011;23120;52.336;21.182;2022-10-31T11:33:19;13.87;;;10.83;;
17065;SDS011;23120;52.336;21.182;2022-10-31T11:35:50;14.43;;;11.27;;
17065;SDS011;23120;52.336;21.182;2022-10-31T11:38:20;15.70;;;11.50;;
17065;SDS011;23120;52.336;21.182;2022-10-31T11:40:53;15.67;;;11.50;;
17065;SDS011;23120;52.336;21.182;2022-10-31T11:43:23;17.17;;;12.90;;
17065;SDS011;23120;52.336;21.182;2022-10-31T11:45:50;17.53;;;13.47;;
17065;SDS011;23120;52.336;21.182;2022-10-31T11:48:18;14.40;;;12.10;;
17065;SDS011;23120;52.336;21.182;2022-10-31T11:50:48;14.50;;;11.60;;
17065;SDS011;23120;52.336;21.182;2022-10-31T11:53:17;16.30;;;12.13;;
17065;SDS011;23120;52.336;21.182;2022-10-31T11:56:03;15.87;;;11.97;;
17065;SDS011;23120;52.336;21.182;2022-10-31T11:58:33;19.00;;;12.33;;
17065;SDS011;23120;52.336;21.182;2022-10-31T12:00:59;14.07;;;12.43;;
17065;SDS011;23120;52.336;21.182;2022-10-31T12:03:28;17.33;;;12.80;;
17065;SDS011;23120;52.336;21.182;2022-10-31T12:06:05;16.07;;;13.00;;
17065;SDS011;23120;52.336;21.182;2022-10-31T12:08:36;14.67;;;11.73;;
17065;SDS011;23120;52.336;21.182;2022-10-31T12:11:08;14.27;;;11.27;;
17065;SDS011;23120;52.336;21.182;2022-10-31T12:13:45;12.67;;;10.63;;
17065;SDS011;23120;52.336;21.182;2022-10-31T12:16:22;12.93;;;10.83;;
17065;SDS011;23120;52.336;21.182;2022-10-31T12:18:59;13.73;;;11.13;;
17065;SDS011;23120;52.336;21.182;2022-10-31T12:21:37;12.37;;;10.70;;
17065;SDS011;23120;52.336;21.182;2022-10-31T12:24:18;13.63;;;10.43;;
17065;SDS011;23120;52.336;21.182;2022-10-31T12:26:57;13.97;;;11.43;;
17065;SDS011;23120;52.336;21.182;2022-10-31T12:29:37;14.53;;;11.43;;
17065;SDS011;23120;52.336;21.182;2022-10-31T12:32:16;13.43;;;12.10;;
17065;SDS011;23120;52.336;21.182;2022-10-31T12:35:05;16.03;;;11.23;;
17065;SDS011;23120;52.336;21.182;2022-10-31T12:37:52;16.50;;;10.80;;
17065;SDS011;23120;52.336;21.182;2022-10-31T12:40:38;14.93;;;11.80;;
17065;SDS011;23120;52.336;21.182;2022-10-31T12:43:18;28.13;;;13.07;;
17065;SDS011;23120;52.336;21.182;2022-10-31T12:45:57;26.70;;;13.27;;
17065;SDS011;23120;52.336;21.182;2022-10-31T12:51:40;18.87;;;12.90;;
17065;SDS011;23120;52.336;21.182;2022-10-31T12:54:23;18.30;;;12.60;;
17065;SDS011;23120;52.336;21.182;2022-10-31T12:57:06;13.33;;;10.97;;
17065;SDS011;23120;52.336;21.182;2022-10-31T12:59:43;13.90;;;11.00;;
17065;SDS011;23120;52.336;21.182;2022-10-31T13:02:16;14.23;;;11.93;;
17065;SDS011;23120;52.336;21.182;2022-10-31T13:04:47;17.80;;;11.40;;
17065;SDS011;23120;52.336;21.182;2022-10-31T13:07:19;16.03;;;10.33;;
17065;SDS011;23120;52.336;21.182;2022-10-31T13:09:50;14.53;;;11.90;;
17065;SDS011;23120;52.336;21.182;2022-10-31T13:12:23;14.50;;;11.03;;
17065;SDS011;23120;52.336;21.182;2022-10-31T13:14:53;15.27;;;10.70;;
17065;SDS011;23120;52.336;21.182;2022-10-31T13:17:26;14.13;;;11.33;;
17065;SDS011;23120;52.336;21.182;2022-10-31T13:20:04;14.07;;;10.73;;
17065;SDS011;23120;52.336;21.182;2022-10-31T13:22:42;15.93;;;11.87;;
17065;SDS011;23120;52.336;21.182;2022-10-31T13:25:13;14.88;;;10.35;;
17065;SDS011;23120;52.336;21.182;2022-10-31T13:27:44;15.97;;;11.10;;
17065;SDS011;23120;52.336;21.182;2022-10-31T13:30:16;12.88;;;11.07;;
17065;SDS011;23120;52.336;21.182;2022-10-31T13:32:47;12.10;;;10.73;;
17065;SDS011;23120;52.336;21.182;2022-10-31T13:35:20;13.43;;;10.27;;
17065;SDS011;23120;52.336;21.182;2022-10-31T13:37:56;14.43;;;10.23;;
17065;SDS011;23120;52.336;21.182;2022-10-31T13:40:38;11.87;;;9.90;;
17065;SDS011;23120;52.336;21.182;2022-10-31T13:43:13;12.83;;;10.27;;
17065;SDS011;23120;52.336;21.182;2022-10-31T13:45:50;11.47;;;10.10;;
17065;SDS011;23120;52.336;21.182;2022-10-31T13:48:33;12.93;;;10.50;;
17065;SDS011;23120;52.336;21.182;2022-10-31T13:51:07;12.57;;;10.33;;
17065;SDS011;23120;52.336;21.182;2022-10-31T13:53:36;11.80;;;9.97;;
17065;SDS011;23120;52.336;21.182;2022-10-31T13:56:11;11.63;;;9.70;;
17065;SDS011;23120;52.336;21.182;2022-10-31T13:58:41;13.07;;;11.00;;
17065;SDS011;23120;52.336;21.182;2022-10-31T14:01:21;12.60;;;10.40;;
17065;SDS011;23120;52.336;21.182;2022-10-31T14:03:56;14.40;;;10.23;;
17065;SDS011;23120;52.336;21.182;2022-10-31T14:06:40;13.13;;;9.70;;
17065;SDS011;23120;52.336;21.182;2022-10-31T14:09:18;15.47;;;10.60;;
17065;SDS011;23120;52.336;21.182;2022-10-31T14:11:54;13.03;;;10.23;;
17065;SDS011;23120;52.336;21.182;2022-10-31T14:14:22;13.70;;;10.47;;
17065;SDS011;23120;52.336;21.182;2022-10-31T14:16:55;16.33;;;10.70;;
17065;SDS011;23120;52.336;21.182;2022-10-31T14:19:25;13.53;;;10.00;;
17065;SDS011;23120;52.336;21.182;2022-10-31T14:21:53;10.77;;;9.50;;
17065;SDS011;23120;52.336;21.182;2022-10-31T14:30:14;14.60;;;9.57;;
17065;SDS011;23120;52.336;21.182;2022-10-31T14:32:42;15.63;;;9.10;;
17065;SDS011;23120;52.336;21.182;2022-10-31T14:35:14;13.03;;;8.87;;
17065;SDS011;23120;52.336;21.182;2022-10-31T14:37:49;13.60;;;9.07;;
17065;SDS011;23120;52.336;21.182;2022-10-31T14:40:37;16.43;;;9.53;;
17065;SDS011;23120;52.336;21.182;2022-10-31T14:43:19;11.83;;;9.30;;
17065;SDS011;23120;52.336;21.182;2022-10-31T14:46:12;18.63;;;9.60;;
17065;SDS011;23120;52.336;21.182;2022-10-31T14:48:51;12.70;;;8.63;;
17065;SDS011;23120;52.336;21.182;2022-10-31T14:51:32;10.73;;;8.87;;
17065;SDS011;23120;52.336;21.182;2022-10-31T14:54:02;11.33;;;8.90;;
17065;SDS011;23120;52.336;21.182;2022-10-31T14:56:33;14.83;;;9.43;;